sensor_id;sensor_type;location;lat;lon;timestamp;P1;durP1;ratioP1;P2;durP2;ratioP2
19800;SDS011;10060;48.274;12.214;2023-08-31T00:02:23;3.28;;;2.90;;
19800;SDS011;10060;48.274;12.214;2023-08-31T00:05:27;3.10;;;2.90;;
19800;SDS011;10060;48.274;12.214;2023-08-31T00:08:30;3.58;;;3.28;;
19800;SDS011;10060;48.274;12.214;2023-08-31T00:11:32;3.40;;;2.90;;
19800;SDS011;10060;48.274;12.214;2023-08-31T00:14:35;3.00;;;2.67;;
19800;SDS011;10060;48.274;12.214;2023-08-31T00:17:37;3.00;;;2.70;;
19800;SDS011;10060;48.274;12.214;2023-08-31T00:20:40;3.10;;;2.80;;
19800;SDS011;10060;48.274;12.214;2023-08-31T00:23:43;3.28;;;2.85;;
19800;SDS011;10060;48.274;12.214;2023-08-31T00:26:45;2.85;;;2.60;;
19800;SDS011;10060;48.274;12.214;2023-08-31T00:29:47;2.70;;;2.50;;
19800;SDS011;10060;48.274;12.214;2023-08-31T00:32:50;2.97;;;2.40;;
19800;SDS011;10060;48.274;12.214;2023-08-31T00:35:55;2.97;;;2.22;;
19800;SDS011;10060;48.274;12.214;2023-08-31T00:39:02;3.28;;;2.60;;
19800;SDS011;10060;48.274;12.214;2023-08-31T00:42:08;2.70;;;2.50;;
19800;SDS011;10060;48.274;12.214;2023-08-31T00:45:11;3.55;;;3.08;;
19800;SDS011;10060;48.274;12.214;2023-08-31T00:48:14;2.95;;;2.45;;
19800;SDS011;10060;48.274;12.214;2023-08-31T00:51:18;3.35;;;3.00;;
19800;SDS011;10060;48.274;12.214;2023-08-31T00:54:20;3.77;;;2.80;;
19800;SDS011;10060;48.274;12.214;2023-08-31T00:57:22;6.10;;;2.57;;
19800;SDS011;10060;48.274;12.214;2023-08-31T01:00:28;3.70;;;3.35;;
19800;SDS011;10060;48.274;12.214;2023-08-31T01:03:35;3.20;;;2.87;;
19800;SDS011;10060;48.274;12.214;2023-08-31T01:06:47;3.22;;;2.92;;
19800;SDS011;10060;48.274;12.214;2023-08-31T01:13:11;2.90;;;2.50;;
19800;SDS011;10060;48.274;12.214;2023-08-31T01:16:13;3.67;;;2.83;;
19800;SDS011;10060;48.274;12.214;2023-08-31T01:19:21;4.05;;;2.60;;
19800;SDS011;10060;48.274;12.214;2023-08-31T01:22:29;3.27;;;2.77;;
19800;SDS011;10060;48.274;12.214;2023-08-31T01:25:34;3.07;;;2.77;;
19800;SDS011;10060;48.274;12.214;2023-08-31T01:28:36;2.70;;;2.50;;
19800;SDS011;10060;48.274;12.214;2023-08-31T01:31:43;3.70;;;2.90;;
19800;SDS011;10060;48.274;12.214;2023-08-31T01:34:45;2.90;;;2.30;;
19800;SDS011;10060;48.274;12.214;2023-08-31T01:37:49;6.68;;;2.30;;
19800;SDS011;10060;48.274;12.214;2023-08-31T01:40:54;2.70;;;2.43;;
19800;SDS011;10060;48.274;12.214;2023-08-31T01:43:58;3.00;;;2.70;;
19800;SDS011;10060;48.274;12.214;2023-08-31T01:47:02;2.60;;;2.40;;
19800;SDS011;10060;48.274;12.214;2023-08-31T01:50:05;3.13;;;2.83;;
19800;SDS011;10060;48.274;12.214;2023-08-31T01:53:07;2.60;;;2.40;;
19800;SDS011;10060;48.274;12.214;2023-08-31T01:56:11;5.03;;;2.80;;
19800;SDS011;10060;48.274;12.214;2023-08-31T01:59:13;12.93;;;5.15;;
19800;SDS011;10060;48.274;12.214;2023-08-31T02:02:16;3.20;;;2.90;;
19800;SDS011;10060;48.274;12.214;2023-08-31T02:05:18;2.70;;;2.38;;
19800;SDS011;10060;48.274;12.214;2023-08-31T02:08:20;2.92;;;2.70;;
19800;SDS011;10060;48.274;12.214;2023-08-31T02:11:23;8.93;;;3.20;;
19800;SDS011;10060;48.274;12.214;2023-08-31T02:14:25;3.83;;;2.90;;
19800;SDS011;10060;48.274;12.214;2023-08-31T02:17:27;2.67;;;2.47;;
19800;SDS011;10060;48.274;12.214;2023-08-31T02:20:29;2.80;;;2.47;;
19800;SDS011;10060;48.274;12.214;2023-08-31T02:23:31;4.03;;;2.80;;
19800;SDS011;10060;48.274;12.214;2023-08-31T02:26:36;5.97;;;2.70;;
19800;SDS011;10060;48.274;12.214;2023-08-31T02:29:38;3.40;;;3.10;;
19800;SDS011;10060;48.274;12.214;2023-08-31T02:32:40;2.70;;;2.50;;
19800;SDS011;10060;48.274;12.214;2023-08-31T02:35:43;4.80;;;3.03;;
19800;SDS011;10060;48.274;12.214;2023-08-31T02:38:45;3.30;;;2.93;;
19800;SDS011;10060;48.274;12.214;2023-08-31T02:41:48;4.30;;;2.93;;
19800;SDS011;10060;48.274;12.214;2023-08-31T02:44:51;3.07;;;2.80;;
19800;SDS011;10060;48.274;12.214;2023-08-31T02:47:54;3.30;;;3.00;;
19800;SDS011;10060;48.274;12.214;2023-08-31T02:50:57;4.00;;;3.03;;
19800;SDS011;10060;48.274;12.214;2023-08-31T02:54:00;4.27;;;3.00;;
19800;SDS011;10060;48.274;12.214;2023-08-31T02:57:04;3.03;;;2.80;;
19800;SDS011;10060;48.274;12.214;2023-08-31T03:00:07;3.50;;;3.00;;
19800;SDS011;10060;48.274;12.214;2023-08-31T03:03:11;5.53;;;3.20;;
19800;SDS011;10060;48.274;12.214;2023-08-31T03:06:13;4.00;;;3.60;;
19800;SDS011;10060;48.274;12.214;2023-08-31T03:09:16;3.70;;;3.30;;
19800;SDS011;10060;48.274;12.214;2023-08-31T03:12:21;3.80;;;3.50;;
19800;SDS011;10060;48.274;12.214;2023-08-31T03:15:23;9.43;;;3.50;;
19800;SDS011;10060;48.274;12.214;2023-08-31T03:18:25;3.40;;;3.10;;
19800;SDS011;10060;48.274;12.214;2023-08-31T03:21:27;4.10;;;3.67;;
19800;SDS011;10060;48.274;12.214;2023-08-31T03:24:31;3.47;;;3.17;;
19800;SDS011;10060;48.274;12.214;2023-08-31T03:27:34;3.67;;;3.30;;
19800;SDS011;10060;48.274;12.214;2023-08-31T03:30:36;4.23;;;3.50;;
19800;SDS011;10060;48.274;12.214;2023-08-31T03:33:38;3.57;;;3.27;;
19800;SDS011;10060;48.274;12.214;2023-08-31T03:36:40;4.50;;;3.40;;
19800;SDS011;10060;48.274;12.214;2023-08-31T03:39:42;3.53;;;3.10;;
19800;SDS011;10060;48.274;12.214;2023-08-31T03:42:46;3.60;;;3.30;;
19800;SDS011;10060;48.274;12.214;2023-08-31T03:45:48;3.70;;;3.17;;
19800;SDS011;10060;48.274;12.214;2023-08-31T03:48:50;7.70;;;3.53;;
19800;SDS011;10060;48.274;12.214;2023-08-31T03:51:52;3.97;;;3.40;;
19800;SDS011;10060;48.274;12.214;2023-08-31T03:54:55;5.80;;;4.00;;
19800;SDS011;10060;48.274;12.214;2023-08-31T03:57:58;5.43;;;3.73;;
19800;SDS011;10060;48.274;12.214;2023-08-31T04:01:00;4.80;;;3.80;;
19800;SDS011;10060;48.274;12.214;2023-08-31T04:04:05;4.97;;;4.00;;
19800;SDS011;10060;48.274;12.214;2023-08-31T04:07:07;4.63;;;4.13;;
19800;SDS011;10060;48.274;12.214;2023-08-31T04:10:09;4.90;;;4.40;;
19800;SDS011;10060;48.274;12.214;2023-08-31T04:13:12;4.83;;;4.33;;
19800;SDS011;10060;48.274;12.214;2023-08-31T04:16:15;4.80;;;4.30;;
19800;SDS011;10060;48.274;12.214;2023-08-31T04:19:17;5.07;;;4.57;;
19800;SDS011;10060;48.274;12.214;2023-08-31T04:22:19;5.50;;;4.40;;
19800;SDS011;10060;48.274;12.214;2023-08-31T04:25:21;4.90;;;4.50;;
19800;SDS011;10060;48.274;12.214;2023-08-31T04:28:24;5.33;;;4.83;;
19800;SDS011;10060;48.274;12.214;2023-08-31T04:31:26;5.25;;;4.63;;
19800;SDS011;10060;48.274;12.214;2023-08-31T04:34:28;5.50;;;4.90;;
19800;SDS011;10060;48.274;12.214;2023-08-31T04:37:31;5.33;;;4.80;;
19800;SDS011;10060;48.274;12.214;2023-08-31T04:40:33;4.97;;;4.47;;
19800;SDS011;10060;48.274;12.214;2023-08-31T04:43:37;11.30;;;4.80;;
19800;SDS011;10060;48.274;12.214;2023-08-31T04:46:40;5.13;;;4.10;;
19800;SDS011;10060;48.274;12.214;2023-08-31T04:49:42;4.80;;;4.30;;
19800;SDS011;10060;48.274;12.214;2023-08-31T04:52:44;4.53;;;4.10;;
19800;SDS011;10060;48.274;12.214;2023-08-31T04:55:46;4.97;;;4.47;;
19800;SDS011;10060;48.274;12.214;2023-08-31T04:58:49;4.43;;;4.03;;
19800;SDS011;10060;48.274;12.214;2023-08-31T05:01:51;5.20;;;4.33;;
19800;SDS011;10060;48.274;12.214;2023-08-31T05:04:54;6.80;;;4.73;;
19800;SDS011;10060;48.274;12.214;2023-08-31T05:07:56;6.43;;;4.50;;
19800;SDS011;10060;48.274;12.214;2023-08-31T05:10:58;6.30;;;4.77;;
19800;SDS011;10060;48.274;12.214;2023-08-31T05:14:02;5.33;;;4.80;;
19800;SDS011;10060;48.274;12.214;2023-08-31T05:17:04;5.63;;;4.80;;
19800;SDS011;10060;48.274;12.214;2023-08-31T05:20:07;6.53;;;4.60;;
19800;SDS011;10060;48.274;12.214;2023-08-31T05:23:10;5.13;;;4.60;;
19800;SDS011;10060;48.274;12.214;2023-08-31T05:26:12;8.30;;;4.90;;
19800;SDS011;10060;48.274;12.214;2023-08-31T05:29:16;5.47;;;4.67;;
19800;SDS011;10060;48.274;12.214;2023-08-31T05:32:19;4.43;;;4.03;;
19800;SDS011;10060;48.274;12.214;2023-08-31T05:35:21;7.83;;;4.47;;
19800;SDS011;10060;48.274;12.214;2023-08-31T05:38:23;5.10;;;4.37;;
19800;SDS011;10060;48.274;12.214;2023-08-31T05:41:25;4.90;;;4.00;;
19800;SDS011;10060;48.274;12.214;2023-08-31T05:44:28;5.10;;;4.17;;
19800;SDS011;10060;48.274;12.214;2023-08-31T05:47:30;5.13;;;4.40;;
19800;SDS011;10060;48.274;12.214;2023-08-31T05:50:32;4.23;;;3.73;;
19800;SDS011;10060;48.274;12.214;2023-08-31T05:53:36;4.93;;;3.87;;
19800;SDS011;10060;48.274;12.214;2023-08-31T05:56:38;4.03;;;3.63;;
19800;SDS011;10060;48.274;12.214;2023-08-31T05:59:42;4.77;;;3.90;;
19800;SDS011;10060;48.274;12.214;2023-08-31T06:02:44;4.33;;;3.77;;
19800;SDS011;10060;48.274;12.214;2023-08-31T06:05:47;7.17;;;4.03;;
19800;SDS011;10060;48.274;12.214;2023-08-31T06:08:50;5.20;;;3.97;;
19800;SDS011;10060;48.274;12.214;2023-08-31T06:11:53;4.20;;;3.77;;
19800;SDS011;10060;48.274;12.214;2023-08-31T06:14:57;4.70;;;3.77;;
19800;SDS011;10060;48.274;12.214;2023-08-31T06:18:00;6.07;;;4.03;;
19800;SDS011;10060;48.274;12.214;2023-08-31T06:21:02;6.20;;;4.43;;
19800;SDS011;10060;48.274;12.214;2023-08-31T06:24:05;5.40;;;4.00;;
19800;SDS011;10060;48.274;12.214;2023-08-31T06:27:10;5.00;;;4.40;;
19800;SDS011;10060;48.274;12.214;2023-08-31T06:30:14;5.03;;;4.13;;
19800;SDS011;10060;48.274;12.214;2023-08-31T06:33:16;4.10;;;3.53;;
19800;SDS011;10060;48.274;12.214;2023-08-31T06:36:20;4.40;;;4.00;;
19800;SDS011;10060;48.274;12.214;2023-08-31T06:39:22;5.47;;;3.70;;
19800;SDS011;10060;48.274;12.214;2023-08-31T06:42:24;6.72;;;3.92;;
19800;SDS011;10060;48.274;12.214;2023-08-31T06:45:27;4.40;;;3.60;;
19800;SDS011;10060;48.274;12.214;2023-08-31T06:48:29;5.47;;;4.03;;
19800;SDS011;10060;48.274;12.214;2023-08-31T06:51:31;4.27;;;3.87;;
19800;SDS011;10060;48.274;12.214;2023-08-31T06:54:34;3.45;;;3.10;;
19800;SDS011;10060;48.274;12.214;2023-08-31T06:57:36;5.32;;;3.30;;
19800;SDS011;10060;48.274;12.214;2023-08-31T07:00:40;3.87;;;2.90;;
19800;SDS011;10060;48.274;12.214;2023-08-31T07:03:42;3.80;;;2.90;;
19800;SDS011;10060;48.274;12.214;2023-08-31T07:06:44;3.73;;;3.27;;
19800;SDS011;10060;48.274;12.214;2023-08-31T07:09:46;4.43;;;3.13;;
19800;SDS011;10060;48.274;12.214;2023-08-31T07:12:49;3.95;;;2.72;;
19800;SDS011;10060;48.274;12.214;2023-08-31T07:15:52;3.87;;;3.30;;
19800;SDS011;10060;48.274;12.214;2023-08-31T07:18:54;4.85;;;3.20;;
19800;SDS011;10060;48.274;12.214;2023-08-31T07:21:56;5.25;;;3.03;;
19800;SDS011;10060;48.274;12.214;2023-08-31T07:24:59;4.93;;;3.17;;
19800;SDS011;10060;48.274;12.214;2023-08-31T07:28:03;4.40;;;3.00;;
19800;SDS011;10060;48.274;12.214;2023-08-31T07:31:07;6.45;;;2.92;;
19800;SDS011;10060;48.274;12.214;2023-08-31T07:34:09;8.10;;;2.88;;
19800;SDS011;10060;48.274;12.214;2023-08-31T07:37:11;5.72;;;2.90;;
19800;SDS011;10060;48.274;12.214;2023-08-31T07:40:13;3.45;;;3.00;;
19800;SDS011;10060;48.274;12.214;2023-08-31T07:43:15;4.05;;;2.85;;
19800;SDS011;10060;48.274;12.214;2023-08-31T07:46:19;4.13;;;2.65;;
19800;SDS011;10060;48.274;12.214;2023-08-31T07:49:21;4.20;;;2.50;;
19800;SDS011;10060;48.274;12.214;2023-08-31T07:52:23;5.03;;;3.08;;
19800;SDS011;10060;48.274;12.214;2023-08-31T07:55:25;5.70;;;2.97;;
19800;SDS011;10060;48.274;12.214;2023-08-31T07:58:27;3.08;;;2.63;;
19800;SDS011;10060;48.274;12.214;2023-08-31T08:01:31;3.53;;;2.58;;
19800;SDS011;10060;48.274;12.214;2023-08-31T08:04:33;4.53;;;2.63;;
19800;SDS011;10060;48.274;12.214;2023-08-31T08:07:35;5.63;;;2.70;;
19800;SDS011;10060;48.274;12.214;2023-08-31T08:10:37;4.03;;;2.70;;
19800;SDS011;10060;48.274;12.214;2023-08-31T08:13:39;3.72;;;2.25;;
19800;SDS011;10060;48.274;12.214;2023-08-31T08:16:42;3.28;;;2.65;;
19800;SDS011;10060;48.274;12.214;2023-08-31T08:19:44;5.47;;;2.30;;
19800;SDS011;10060;48.274;12.214;2023-08-31T08:22:47;3.60;;;2.80;;
19800;SDS011;10060;48.274;12.214;2023-08-31T08:25:52;3.20;;;2.45;;
19800;SDS011;10060;48.274;12.214;2023-08-31T08:28:54;4.17;;;2.77;;
19800;SDS011;10060;48.274;12.214;2023-08-31T08:31:57;3.67;;;3.03;;
19800;SDS011;10060;48.274;12.214;2023-08-31T08:34:59;4.38;;;2.25;;
19800;SDS011;10060;48.274;12.214;2023-08-31T08:38:02;4.97;;;2.70;;
19800;SDS011;10060;48.274;12.214;2023-08-31T08:41:04;4.13;;;2.40;;
19800;SDS011;10060;48.274;12.214;2023-08-31T08:44:07;5.63;;;2.58;;
19800;SDS011;10060;48.274;12.214;2023-08-31T08:47:11;3.85;;;2.45;;
19800;SDS011;10060;48.274;12.214;2023-08-31T08:50:14;5.90;;;2.47;;
19800;SDS011;10060;48.274;12.214;2023-08-31T08:53:16;6.35;;;2.53;;
19800;SDS011;10060;48.274;12.214;2023-08-31T08:56:18;4.88;;;2.15;;
19800;SDS011;10060;48.274;12.214;2023-08-31T08:59:20;4.07;;;2.55;;
19800;SDS011;10060;48.274;12.214;2023-08-31T09:02:24;5.35;;;2.25;;
19800;SDS011;10060;48.274;12.214;2023-08-31T09:05:26;5.43;;;2.40;;
19800;SDS011;10060;48.274;12.214;2023-08-31T09:08:28;4.25;;;2.38;;
19800;SDS011;10060;48.274;12.214;2023-08-31T09:11:30;3.92;;;2.00;;
19800;SDS011;10060;48.274;12.214;2023-08-31T09:14:33;4.78;;;2.05;;
19800;SDS011;10060;48.274;12.214;2023-08-31T09:17:40;3.75;;;1.92;;
19800;SDS011;10060;48.274;12.214;2023-08-31T09:20:44;3.20;;;2.08;;
19800;SDS011;10060;48.274;12.214;2023-08-31T09:23:47;4.22;;;2.28;;
19800;SDS011;10060;48.274;12.214;2023-08-31T09:26:52;9.27;;;2.25;;
19800;SDS011;10060;48.274;12.214;2023-08-31T09:29:54;3.17;;;2.10;;
19800;SDS011;10060;48.274;12.214;2023-08-31T09:32:58;6.47;;;2.33;;
19800;SDS011;10060;48.274;12.214;2023-08-31T09:36:00;2.88;;;2.17;;
19800;SDS011;10060;48.274;12.214;2023-08-31T09:39:05;4.45;;;2.40;;
19800;SDS011;10060;48.274;12.214;2023-08-31T09:42:07;3.65;;;2.15;;
19800;SDS011;10060;48.274;12.214;2023-08-31T09:45:09;2.20;;;2.00;;
19800;SDS011;10060;48.274;12.214;2023-08-31T09:48:13;3.40;;;2.40;;
19800;SDS011;10060;48.274;12.214;2023-08-31T09:51:16;4.97;;;2.88;;
19800;SDS011;10060;48.274;12.214;2023-08-31T09:54:25;27.25;;;4.20;;
19800;SDS011;10060;48.274;12.214;2023-08-31T09:57:29;5.43;;;2.78;;
19800;SDS011;10060;48.274;12.214;2023-08-31T10:00:31;5.68;;;2.90;;
19800;SDS011;10060;48.274;12.214;2023-08-31T10:03:35;3.58;;;2.60;;
19800;SDS011;10060;48.274;12.214;2023-08-31T10:06:38;6.35;;;2.30;;
19800;SDS011;10060;48.274;12.214;2023-08-31T10:09:40;5.40;;;2.70;;
19800;SDS011;10060;48.274;12.214;2023-08-31T10:12:42;3.28;;;2.00;;
19800;SDS011;10060;48.274;12.214;2023-08-31T10:15:46;5.68;;;2.92;;
19800;SDS011;10060;48.274;12.214;2023-08-31T10:18:52;3.00;;;2.20;;
19800;SDS011;10060;48.274;12.214;2023-08-31T10:21:54;3.55;;;2.58;;
19800;SDS011;10060;48.274;12.214;2023-08-31T10:25:00;6.55;;;2.78;;
19800;SDS011;10060;48.274;12.214;2023-08-31T10:28:10;3.65;;;2.42;;
19800;SDS011;10060;48.274;12.214;2023-08-31T10:31:18;2.55;;;1.95;;
19800;SDS011;10060;48.274;12.214;2023-08-31T10:34:35;4.78;;;2.10;;
19800;SDS011;10060;48.274;12.214;2023-08-31T10:37:39;2.65;;;2.22;;
19800;SDS011;10060;48.274;12.214;2023-08-31T10:40:41;3.20;;;2.30;;
19800;SDS011;10060;48.274;12.214;2023-08-31T10:43:43;6.53;;;2.50;;
19800;SDS011;10060;48.274;12.214;2023-08-31T10:46:46;4.20;;;2.65;;
19800;SDS011;10060;48.274;12.214;2023-08-31T10:49:51;3.22;;;2.20;;
19800;SDS011;10060;48.274;12.214;2023-08-31T10:53:03;3.83;;;2.45;;
19800;SDS011;10060;48.274;12.214;2023-08-31T10:56:09;4.25;;;2.10;;
19800;SDS011;10060;48.274;12.214;2023-08-31T10:59:11;5.82;;;2.67;;
19800;SDS011;10060;48.274;12.214;2023-08-31T11:05:51;2.55;;;1.75;;
19800;SDS011;10060;48.274;12.214;2023-08-31T11:08:53;3.55;;;2.10;;
19800;SDS011;10060;48.274;12.214;2023-08-31T11:11:56;4.05;;;2.45;;
19800;SDS011;10060;48.274;12.214;2023-08-31T11:14:58;4.13;;;1.98;;
19800;SDS011;10060;48.274;12.214;2023-08-31T11:18:00;4.22;;;2.30;;
19800;SDS011;10060;48.274;12.214;2023-08-31T11:21:03;3.95;;;2.30;;
19800;SDS011;10060;48.274;12.214;2023-08-31T11:24:07;2.83;;;1.83;;
19800;SDS011;10060;48.274;12.214;2023-08-31T11:27:09;5.03;;;2.13;;
19800;SDS011;10060;48.274;12.214;2023-08-31T11:30:12;3.65;;;2.30;;
19800;SDS011;10060;48.274;12.214;2023-08-31T11:33:14;3.10;;;2.15;;
19800;SDS011;10060;48.274;12.214;2023-08-31T11:36:18;6.30;;;2.20;;
19800;SDS011;10060;48.274;12.214;2023-08-31T11:39:20;9.43;;;2.38;;
19800;SDS011;10060;48.274;12.214;2023-08-31T11:42:22;4.38;;;2.42;;
19800;SDS011;10060;48.274;12.214;2023-08-31T11:45:24;5.43;;;2.35;;
19800;SDS011;10060;48.274;12.214;2023-08-31T11:48:26;7.00;;;2.78;;
19800;SDS011;10060;48.274;12.214;2023-08-31T11:51:30;4.22;;;2.33;;
19800;SDS011;10060;48.274;12.214;2023-08-31T11:54:36;2.70;;;1.98;;
19800;SDS011;10060;48.274;12.214;2023-08-31T11:57:39;4.50;;;2.97;;
19800;SDS011;10060;48.274;12.214;2023-08-31T12:00:42;3.35;;;2.28;;
19800;SDS011;10060;48.274;12.214;2023-08-31T12:03:46;6.78;;;2.60;;
19800;SDS011;10060;48.274;12.214;2023-08-31T12:06:51;6.75;;;2.78;;
19800;SDS011;10060;48.274;12.214;2023-08-31T12:09:53;4.95;;;2.35;;
19800;SDS011;10060;48.274;12.214;2023-08-31T12:13:07;5.95;;;2.97;;
19800;SDS011;10060;48.274;12.214;2023-08-31T12:16:12;6.13;;;2.83;;
19800;SDS011;10060;48.274;12.214;2023-08-31T12:19:16;3.25;;;2.33;;
19800;SDS011;10060;48.274;12.214;2023-08-31T12:22:19;5.93;;;2.42;;
19800;SDS011;10060;48.274;12.214;2023-08-31T12:25:21;3.30;;;2.42;;
19800;SDS011;10060;48.274;12.214;2023-08-31T12:28:23;4.95;;;2.95;;
19800;SDS011;10060;48.274;12.214;2023-08-31T12:31:25;3.97;;;2.20;;
19800;SDS011;10060;48.274;12.214;2023-08-31T12:34:28;3.72;;;2.40;;
19800;SDS011;10060;48.274;12.214;2023-08-31T12:37:32;5.40;;;2.72;;
19800;SDS011;10060;48.274;12.214;2023-08-31T12:40:34;5.50;;;2.28;;
19800;SDS011;10060;48.274;12.214;2023-08-31T12:43:36;4.35;;;2.25;;
19800;SDS011;10060;48.274;12.214;2023-08-31T12:46:38;5.95;;;2.30;;
19800;SDS011;10060;48.274;12.214;2023-08-31T12:49:41;3.53;;;2.15;;
19800;SDS011;10060;48.274;12.214;2023-08-31T12:52:44;6.35;;;2.05;;
19800;SDS011;10060;48.274;12.214;2023-08-31T12:55:46;4.03;;;2.20;;
19800;SDS011;10060;48.274;12.214;2023-08-31T12:58:49;5.70;;;2.22;;
19800;SDS011;10060;48.274;12.214;2023-08-31T13:01:52;4.18;;;2.13;;
19800;SDS011;10060;48.274;12.214;2023-08-31T13:04:54;3.47;;;2.17;;
19800;SDS011;10060;48.274;12.214;2023-08-31T13:07:57;3.45;;;2.15;;
19800;SDS011;10060;48.274;12.214;2023-08-31T13:10:59;6.90;;;2.47;;
19800;SDS011;10060;48.274;12.214;2023-08-31T13:14:03;3.63;;;2.30;;
19800;SDS011;10060;48.274;12.214;2023-08-31T13:17:06;4.68;;;2.00;;
19800;SDS011;10060;48.274;12.214;2023-08-31T13:20:08;3.67;;;1.90;;
19800;SDS011;10060;48.274;12.214;2023-08-31T13:23:12;4.63;;;1.95;;
19800;SDS011;10060;48.274;12.214;2023-08-31T13:26:14;6.65;;;2.13;;
19800;SDS011;10060;48.274;12.214;2023-08-31T13:29:16;4.22;;;1.80;;
19800;SDS011;10060;48.274;12.214;2023-08-31T13:32:18;3.15;;;1.77;;
19800;SDS011;10060;48.274;12.214;2023-08-31T13:35:20;7.22;;;3.70;;
19800;SDS011;10060;48.274;12.214;2023-08-31T13:38:23;3.50;;;1.83;;
19800;SDS011;10060;48.274;12.214;2023-08-31T13:41:25;4.80;;;2.00;;
19800;SDS011;10060;48.274;12.214;2023-08-31T13:44:27;3.58;;;2.10;;
19800;SDS011;10060;48.274;12.214;2023-08-31T13:47:29;3.25;;;1.90;;
19800;SDS011;10060;48.274;12.214;2023-08-31T13:50:32;6.95;;;1.90;;
19800;SDS011;10060;48.274;12.214;2023-08-31T13:53:35;3.28;;;2.03;;
19800;SDS011;10060;48.274;12.214;2023-08-31T13:56:37;7.50;;;2.38;;
19800;SDS011;10060;48.274;12.214;2023-08-31T13:59:39;5.07;;;2.17;;
19800;SDS011;10060;48.274;12.214;2023-08-31T14:02:41;3.47;;;2.10;;
19800;SDS011;10060;48.274;12.214;2023-08-31T14:05:47;3.78;;;2.03;;
19800;SDS011;10060;48.274;12.214;2023-08-31T14:08:51;5.82;;;2.13;;
19800;SDS011;10060;48.274;12.214;2023-08-31T14:11:53;2.08;;;1.88;;
19800;SDS011;10060;48.274;12.214;2023-08-31T14:14:57;4.38;;;1.90;;
19800;SDS011;10060;48.274;12.214;2023-08-31T14:18:00;5.47;;;2.30;;
19800;SDS011;10060;48.274;12.214;2023-08-31T14:21:03;4.53;;;1.92;;
19800;SDS011;10060;48.274;12.214;2023-08-31T14:24:08;4.90;;;1.90;;
19800;SDS011;10060;48.274;12.214;2023-08-31T14:27:10;5.03;;;1.77;;
19800;SDS011;10060;48.274;12.214;2023-08-31T14:30:12;5.63;;;2.30;;
19800;SDS011;10060;48.274;12.214;2023-08-31T14:33:14;4.20;;;2.20;;
19800;SDS011;10060;48.274;12.214;2023-08-31T14:36:16;4.75;;;2.17;;
19800;SDS011;10060;48.274;12.214;2023-08-31T14:39:20;2.95;;;1.95;;
19800;SDS011;10060;48.274;12.214;2023-08-31T14:42:22;5.32;;;1.90;;
19800;SDS011;10060;48.274;12.214;2023-08-31T14:45:24;3.30;;;2.00;;
19800;SDS011;10060;48.274;12.214;2023-08-31T14:48:26;5.38;;;1.88;;
19800;SDS011;10060;48.274;12.214;2023-08-31T14:51:28;3.88;;;1.73;;
19800;SDS011;10060;48.274;12.214;2023-08-31T14:54:33;5.40;;;2.42;;
19800;SDS011;10060;48.274;12.214;2023-08-31T14:57:35;3.45;;;1.88;;
19800;SDS011;10060;48.274;12.214;2023-08-31T15:00:37;5.72;;;2.08;;
19800;SDS011;10060;48.274;12.214;2023-08-31T15:03:39;2.20;;;1.80;;
19800;SDS011;10060;48.274;12.214;2023-08-31T15:06:41;4.43;;;2.08;;
19800;SDS011;10060;48.274;12.214;2023-08-31T15:09:45;5.25;;;2.05;;
19800;SDS011;10060;48.274;12.214;2023-08-31T15:12:47;3.90;;;1.80;;
19800;SDS011;10060;48.274;12.214;2023-08-31T15:15:51;5.50;;;2.40;;
19800;SDS011;10060;48.274;12.214;2023-08-31T15:18:53;2.83;;;2.03;;
19800;SDS011;10060;48.274;12.214;2023-08-31T15:21:55;5.68;;;1.75;;
19800;SDS011;10060;48.274;12.214;2023-08-31T15:24:58;4.22;;;2.13;;
19800;SDS011;10060;48.274;12.214;2023-08-31T15:28:00;2.95;;;1.80;;
19800;SDS011;10060;48.274;12.214;2023-08-31T15:31:04;4.60;;;2.15;;
19800;SDS011;10060;48.274;12.214;2023-08-31T15:34:06;3.67;;;2.15;;
19800;SDS011;10060;48.274;12.214;2023-08-31T15:37:11;3.20;;;1.73;;
19800;SDS011;10060;48.274;12.214;2023-08-31T15:40:15;10.02;;;2.17;;
19800;SDS011;10060;48.274;12.214;2023-08-31T15:43:17;4.88;;;2.25;;
19800;SDS011;10060;48.274;12.214;2023-08-31T15:46:20;2.75;;;2.05;;
19800;SDS011;10060;48.274;12.214;2023-08-31T15:49:22;5.32;;;2.15;;
19800;SDS011;10060;48.274;12.214;2023-08-31T15:52:25;4.72;;;1.70;;
19800;SDS011;10060;48.274;12.214;2023-08-31T15:55:28;3.92;;;2.13;;
19800;SDS011;10060;48.274;12.214;2023-08-31T15:58:31;3.83;;;1.98;;
19800;SDS011;10060;48.274;12.214;2023-08-31T16:01:33;4.13;;;2.00;;
19800;SDS011;10060;48.274;12.214;2023-08-31T16:04:36;3.33;;;1.80;;
19800;SDS011;10060;48.274;12.214;2023-08-31T16:07:38;5.78;;;2.08;;
19800;SDS011;10060;48.274;12.214;2023-08-31T16:10:42;4.07;;;2.28;;
19800;SDS011;10060;48.274;12.214;2023-08-31T16:13:44;5.25;;;2.00;;
19800;SDS011;10060;48.274;12.214;2023-08-31T16:16:46;3.53;;;1.90;;
19800;SDS011;10060;48.274;12.214;2023-08-31T16:19:48;6.38;;;2.35;;
19800;SDS011;10060;48.274;12.214;2023-08-31T16:22:50;3.42;;;2.00;;
19800;SDS011;10060;48.274;12.214;2023-08-31T16:25:54;3.85;;;1.90;;
19800;SDS011;10060;48.274;12.214;2023-08-31T16:28:56;4.03;;;1.98;;
19800;SDS011;10060;48.274;12.214;2023-08-31T16:31:58;3.70;;;2.17;;
19800;SDS011;10060;48.274;12.214;2023-08-31T16:35:00;4.03;;;1.77;;
19800;SDS011;10060;48.274;12.214;2023-08-31T16:38:03;2.85;;;2.05;;
19800;SDS011;10060;48.274;12.214;2023-08-31T16:41:07;4.10;;;2.60;;
19800;SDS011;10060;48.274;12.214;2023-08-31T16:44:09;5.43;;;2.15;;
19800;SDS011;10060;48.274;12.214;2023-08-31T16:47:11;4.95;;;2.45;;
19800;SDS011;10060;48.274;12.214;2023-08-31T16:50:15;5.88;;;1.90;;
19800;SDS011;10060;48.274;12.214;2023-08-31T16:53:30;3.78;;;2.15;;
19800;SDS011;10060;48.274;12.214;2023-08-31T16:56:35;5.28;;;1.92;;
19800;SDS011;10060;48.274;12.214;2023-08-31T16:59:37;8.20;;;2.30;;
19800;SDS011;10060;48.274;12.214;2023-08-31T17:02:39;3.92;;;1.90;;
19800;SDS011;10060;48.274;12.214;2023-08-31T17:05:42;6.55;;;2.17;;
19800;SDS011;10060;48.274;12.214;2023-08-31T17:08:44;3.35;;;2.08;;
19800;SDS011;10060;48.274;12.214;2023-08-31T17:11:47;4.03;;;2.20;;
19800;SDS011;10060;48.274;12.214;2023-08-31T17:14:49;3.72;;;2.10;;
19800;SDS011;10060;48.274;12.214;2023-08-31T17:17:51;3.53;;;1.92;;
19800;SDS011;10060;48.274;12.214;2023-08-31T17:20:53;2.85;;;1.60;;
19800;SDS011;10060;48.274;12.214;2023-08-31T17:23:55;2.33;;;1.75;;
19800;SDS011;10060;48.274;12.214;2023-08-31T17:26:59;2.38;;;1.67;;
19800;SDS011;10060;48.274;12.214;2023-08-31T17:30:01;7.32;;;2.58;;
19800;SDS011;10060;48.274;12.214;2023-08-31T17:33:06;3.20;;;1.60;;
19800;SDS011;10060;48.274;12.214;2023-08-31T17:36:08;5.97;;;2.20;;
19800;SDS011;10060;48.274;12.214;2023-08-31T17:39:12;4.88;;;2.10;;
19800;SDS011;10060;48.274;12.214;2023-08-31T17:42:15;6.10;;;2.20;;
19800;SDS011;10060;48.274;12.214;2023-08-31T17:45:17;5.60;;;2.30;;
19800;SDS011;10060;48.274;12.214;2023-08-31T17:48:20;3.95;;;2.05;;
19800;SDS011;10060;48.274;12.214;2023-08-31T17:51:22;4.90;;;1.90;;
19800;SDS011;10060;48.274;12.214;2023-08-31T17:54:24;2.88;;;2.00;;
19800;SDS011;10060;48.274;12.214;2023-08-31T17:57:27;5.03;;;2.20;;
19800;SDS011;10060;48.274;12.214;2023-08-31T18:00:30;4.63;;;1.90;;
19800;SDS011;10060;48.274;12.214;2023-08-31T18:03:32;5.40;;;2.17;;
19800;SDS011;10060;48.274;12.214;2023-08-31T18:06:34;3.60;;;1.70;;
19800;SDS011;10060;48.274;12.214;2023-08-31T18:09:37;2.40;;;1.80;;
19800;SDS011;10060;48.274;12.214;2023-08-31T18:12:40;5.28;;;2.35;;